sensor_id;sensor_type;location;lat;lon;timestamp;temperature;humidity
12015;DHT22;6066;48.138;16.402;2023-12-29T00:01:47;2.10;99.90
12015;DHT22;6066;48.138;16.402;2023-12-29T00:04:13;2.20;99.90
12015;DHT22;6066;48.138;16.402;2023-12-29T00:06:42;2.20;99.90
12015;DHT22;6066;48.138;16.402;2023-12-29T00:09:08;2.20;99.90
12015;DHT22;6066;48.138;16.402;2023-12-29T00:11:35;2.20;99.90
12015;DHT22;6066;48.138;16.402;2023-12-29T00:14:02;2.20;99.90
12015;DHT22;6066;48.138;16.402;2023-12-29T00:16:29;2.20;99.90
12015;DHT22;6066;48.138;16.402;2023-12-29T00:18:56;2.20;99.90
12015;DHT22;6066;48.138;16.402;2023-12-29T00:21:22;2.20;99.90
12015;DHT22;6066;48.138;16.402;2023-12-29T00:23:51;2.20;99.90
12015;DHT22;6066;48.138;16.402;2023-12-29T00:26:17;2.20;99.90
12015;DHT22;6066;48.138;16.402;2023-12-29T00:28:44;2.20;99.90
12015;DHT22;6066;48.138;16.402;2023-12-29T00:31:13;2.20;99.90
12015;DHT22;6066;48.138;16.402;2023-12-29T00:33:40;2.20;99.90
12015;DHT22;6066;48.138;16.402;2023-12-29T00:36:07;2.20;99.90
12015;DHT22;6066;48.138;16.402;2023-12-29T00:38:34;2.20;99.90
12015;DHT22;6066;48.138;16.402;2023-12-29T00:41:02;2.20;99.90
12015;DHT22;6066;48.138;16.402;2023-12-29T00:43:31;2.20;99.90
12015;DHT22;6066;48.138;16.402;2023-12-29T00:45:58;2.20;99.90
12015;DHT22;6066;48.138;16.402;2023-12-29T00:48:24;2.20;99.90
12015;DHT22;6066;48.138;16.402;2023-12-29T00:50:51;2.20;99.90
12015;DHT22;6066;48.138;16.402;2023-12-29T00:53:18;2.30;99.90
12015;DHT22;6066;48.138;16.402;2023-12-29T00:55:45;2.30;99.90
12015;DHT22;6066;48.138;16.402;2023-12-29T00:58:13;2.30;99.90
12015;DHT22;6066;48.138;16.402;2023-12-29T01:00:40;2.40;99.90
12015;DHT22;6066;48.138;16.402;2023-12-29T01:03:07;2.40;99.90
12015;DHT22;6066;48.138;16.402;2023-12-29T01:05:33;2.40;99.90
12015;DHT22;6066;48.138;16.402;2023-12-29T01:08:00;2.40;99.90
12015;DHT22;6066;48.138;16.402;2023-12-29T01:10:27;2.40;99.90
12015;DHT22;6066;48.138;16.402;2023-12-29T01:12:54;2.40;99.90
12015;DHT22;6066;48.138;16.402;2023-12-29T01:15:22;2.40;99.90
12015;DHT22;6066;48.138;16.402;2023-12-29T01:17:49;2.40;99.90
12015;DHT22;6066;48.138;16.402;2023-12-29T01:20:15;2.40;99.90
12015;DHT22;6066;48.138;16.402;2023-12-29T01:22:42;2.40;99.90
12015;DHT22;6066;48.138;16.402;2023-12-29T01:25:09;2.40;99.90
12015;DHT22;6066;48.138;16.402;2023-12-29T01:27:36;2.40;99.90
12015;DHT22;6066;48.138;16.402;2023-12-29T01:30:03;2.50;99.90
12015;DHT22;6066;48.138;16.402;2023-12-29T01:32:31;2.40;99.90
12015;DHT22;6066;48.138;16.402;2023-12-29T01:34:58;2.50;99.90
12015;DHT22;6066;48.138;16.402;2023-12-29T01:37:25;2.50;99.90
12015;DHT22;6066;48.138;16.402;2023-12-29T01:39:52;2.50;99.90
12015;DHT22;6066;48.138;16.402;2023-12-29T01:42:18;2.50;99.90
12015;DHT22;6066;48.138;16.402;2023-12-29T01:44:45;2.50;99.90
12015;DHT22;6066;48.138;16.402;2023-12-29T01:47:16;2.50;99.90
12015;DHT22;6066;48.138;16.402;2023-12-29T01:49:45;2.50;99.90
12015;DHT22;6066;48.138;16.402;2023-12-29T01:52:12;2.60;99.90
12015;DHT22;6066;48.138;16.402;2023-12-29T01:54:40;2.60;99.90
12015;DHT22;6066;48.138;16.402;2023-12-29T01:57:08;2.50;99.90
12015;DHT22;6066;48.138;16.402;2023-12-29T01:59:35;2.60;99.90
12015;DHT22;6066;48.138;16.402;2023-12-29T02:02:03;2.60;99.90
12015;DHT22;6066;48.138;16.402;2023-12-29T02:04:30;2.50;99.90
12015;DHT22;6066;48.138;16.402;2023-12-29T02:06:58;2.50;99.90
12015;DHT22;6066;48.138;16.402;2023-12-29T02:09:25;2.50;99.90
12015;DHT22;6066;48.138;16.402;2023-12-29T02:11:52;2.50;99.90
12015;DHT22;6066;48.138;16.402;2023-12-29T02:14:19;2.50;99.90
12015;DHT22;6066;48.138;16.402;2023-12-29T02:16:47;2.50;99.90
12015;DHT22;6066;48.138;16.402;2023-12-29T02:22:03;2.60;99.90
12015;DHT22;6066;48.138;16.402;2023-12-29T02:24:30;2.60;99.90
12015;DHT22;6066;48.138;16.402;2023-12-29T02:27:00;2.60;99.90
12015;DHT22;6066;48.138;16.402;2023-12-29T02:29:29;2.60;99.90
12015;DHT22;6066;48.138;16.402;2023-12-29T02:31:57;2.60;99.90
12015;DHT22;6066;48.138;16.402;2023-12-29T02:34:25;2.70;99.90
12015;DHT22;6066;48.138;16.402;2023-12-29T02:36:54;2.60;99.90
12015;DHT22;6066;48.138;16.402;2023-12-29T02:39:22;2.70;99.90
12015;DHT22;6066;48.138;16.402;2023-12-29T02:41:49;2.60;99.90
12015;DHT22;6066;48.138;16.402;2023-12-29T02:44:17;2.70;99.90
12015;DHT22;6066;48.138;16.402;2023-12-29T02:46:44;2.70;99.90
12015;DHT22;6066;48.138;16.402;2023-12-29T02:49:11;2.70;99.90
12015;DHT22;6066;48.138;16.402;2023-12-29T02:51:38;2.70;99.90
12015;DHT22;6066;48.138;16.402;2023-12-29T02:54:05;2.70;99.90
12015;DHT22;6066;48.138;16.402;2023-12-29T02:56:33;2.70;99.90
12015;DHT22;6066;48.138;16.402;2023-12-29T02:58:59;2.70;99.90
12015;DHT22;6066;48.138;16.402;2023-12-29T03:01:28;2.70;99.90
12015;DHT22;6066;48.138;16.402;2023-12-29T03:03:55;2.70;99.90
12015;DHT22;6066;48.138;16.402;2023-12-29T03:06:20;2.70;99.90
12015;DHT22;6066;48.138;16.402;2023-12-29T03:08:47;2.70;99.90
12015;DHT22;6066;48.138;16.402;2023-12-29T03:11:14;2.70;99.90
12015;DHT22;6066;48.138;16.402;2023-12-29T03:13:41;2.70;99.90
12015;DHT22;6066;48.138;16.402;2023-12-29T03:16:07;2.70;99.90
12015;DHT22;6066;48.138;16.402;2023-12-29T03:18:36;2.70;99.90
12015;DHT22;6066;48.138;16.402;2023-12-29T03:21:05;2.70;99.90
12015;DHT22;6066;48.138;16.402;2023-12-29T03:23:32;2.70;99.90
12015;DHT22;6066;48.138;16.402;2023-12-29T03:25:59;2.70;99.90
12015;DHT22;6066;48.138;16.402;2023-12-29T03:28:26;2.70;99.90
12015;DHT22;6066;48.138;16.402;2023-12-29T03:30:53;2.70;99.90
12015;DHT22;6066;48.138;16.402;2023-12-29T03:33:19;2.70;99.90
12015;DHT22;6066;48.138;16.402;2023-12-29T03:35:48;2.80;99.90
12015;DHT22;6066;48.138;16.402;2023-12-29T03:38:14;2.80;99.90
12015;DHT22;6066;48.138;16.402;2023-12-29T03:40:41;2.80;99.90
12015;DHT22;6066;48.138;16.402;2023-12-29T03:43:08;2.80;99.90
12015;DHT22;6066;48.138;16.402;2023-12-29T03:45:35;2.80;99.90
12015;DHT22;6066;48.138;16.402;2023-12-29T03:48:02;2.80;99.90
12015;DHT22;6066;48.138;16.402;2023-12-29T03:50:28;2.90;99.90
12015;DHT22;6066;48.138;16.402;2023-12-29T03:52:57;2.90;99.90
12015;DHT22;6066;48.138;16.402;2023-12-29T03:55:23;2.90;99.90
12015;DHT22;6066;48.138;16.402;2023-12-29T03:57:50;2.90;99.90
12015;DHT22;6066;48.138;16.402;2023-12-29T04:00:17;3.00;99.90
12015;DHT22;6066;48.138;16.402;2023-12-29T04:02:44;3.00;99.90
12015;DHT22;6066;48.138;16.402;2023-12-29T04:05:11;2.90;99.90
12015;DHT22;6066;48.138;16.402;2023-12-29T04:07:39;3.00;99.90
12015;DHT22;6066;48.138;16.402;2023-12-29T04:10:08;3.00;99.90
12015;DHT22;6066;48.138;16.402;2023-12-29T04:12:36;2.90;99.90
12015;DHT22;6066;48.138;16.402;2023-12-29T04:15:03;2.90;99.90
12015;DHT22;6066;48.138;16.402;2023-12-29T04:17:30;3.00;99.90
12015;DHT22;6066;48.138;16.402;2023-12-29T04:19:56;2.90;99.90
12015;DHT22;6066;48.138;16.402;2023-12-29T04:22:23;3.00;99.90
12015;DHT22;6066;48.138;16.402;2023-12-29T04:24:50;3.00;99.90
12015;DHT22;6066;48.138;16.402;2023-12-29T04:27:18;2.90;99.90
12015;DHT22;6066;48.138;16.402;2023-12-29T04:29:45;3.00;99.90
12015;DHT22;6066;48.138;16.402;2023-12-29T04:32:12;3.00;99.90
12015;DHT22;6066;48.138;16.402;2023-12-29T04:34:39;3.00;99.90
12015;DHT22;6066;48.138;16.402;2023-12-29T04:37:05;3.00;99.90
12015;DHT22;6066;48.138;16.402;2023-12-29T04:39:32;3.00;99.90
12015;DHT22;6066;48.138;16.402;2023-12-29T04:41:59;3.00;99.90
12015;DHT22;6066;48.138;16.402;2023-12-29T04:44:27;3.00;99.90
12015;DHT22;6066;48.138;16.402;2023-12-29T04:46:54;3.00;99.90
12015;DHT22;6066;48.138;16.402;2023-12-29T04:49:21;3.00;99.90
12015;DHT22;6066;48.138;16.402;2023-12-29T04:51:47;3.00;99.90
12015;DHT22;6066;48.138;16.402;2023-12-29T04:54:14;3.00;99.90
12015;DHT22;6066;48.138;16.402;2023-12-29T04:56:41;3.00;99.90
12015;DHT22;6066;48.138;16.402;2023-12-29T04:59:08;3.00;99.90
12015;DHT22;6066;48.138;16.402;2023-12-29T05:01:36;3.00;99.90
12015;DHT22;6066;48.138;16.402;2023-12-29T05:04:03;3.00;99.90
12015;DHT22;6066;48.138;16.402;2023-12-29T05:06:30;3.00;99.90
12015;DHT22;6066;48.138;16.402;2023-12-29T05:08:57;3.00;99.90
12015;DHT22;6066;48.138;16.402;2023-12-29T05:11:24;3.00;99.90
12015;DHT22;6066;48.138;16.402;2023-12-29T05:13:50;3.00;99.90
12015;DHT22;6066;48.138;16.402;2023-12-29T05:16:17;3.00;99.90
12015;DHT22;6066;48.138;16.402;2023-12-29T05:18:45;3.00;99.90
12015;DHT22;6066;48.138;16.402;2023-12-29T05:21:15;3.00;99.90
12015;DHT22;6066;48.138;16.402;2023-12-29T05:23:43;3.00;99.90
12015;DHT22;6066;48.138;16.402;2023-12-29T05:26:10;3.00;99.90
12015;DHT22;6066;48.138;16.402;2023-12-29T05:28:37;3.00;99.90
12015;DHT22;6066;48.138;16.402;2023-12-29T05:31:04;2.90;99.90
12015;DHT22;6066;48.138;16.402;2023-12-29T05:33:31;2.90;99.90
12015;DHT22;6066;48.138;16.402;2023-12-29T05:36:05;3.00;99.90
12015;DHT22;6066;48.138;16.402;2023-12-29T05:38:32;3.00;99.90
12015;DHT22;6066;48.138;16.402;2023-12-29T05:40:59;3.00;99.90
12015;DHT22;6066;48.138;16.402;2023-12-29T05:43:26;3.00;99.90
12015;DHT22;6066;48.138;16.402;2023-12-29T05:45:53;2.90;99.90
12015;DHT22;6066;48.138;16.402;2023-12-29T05:48:20;2.90;99.90
12015;DHT22;6066;48.138;16.402;2023-12-29T05:50:47;2.80;99.90
12015;DHT22;6066;48.138;16.402;2023-12-29T05:53:15;2.80;99.90
12015;DHT22;6066;48.138;16.402;2023-12-29T05:55:42;2.70;99.90
12015;DHT22;6066;48.138;16.402;2023-12-29T05:58:09;2.60;99.90
12015;DHT22;6066;48.138;16.402;2023-12-29T06:00:36;2.60;99.90
12015;DHT22;6066;48.138;16.402;2023-12-29T06:03:04;2.60;99.90
12015;DHT22;6066;48.138;16.402;2023-12-29T06:05:31;2.50;99.90
12015;DHT22;6066;48.138;16.402;2023-12-29T06:07:58;2.50;99.90
12015;DHT22;6066;48.138;16.402;2023-12-29T06:10:26;2.40;99.90
12015;DHT22;6066;48.138;16.402;2023-12-29T06:12:53;2.30;99.90
12015;DHT22;6066;48.138;16.402;2023-12-29T06:15:20;2.30;99.90
12015;DHT22;6066;48.138;16.402;2023-12-29T06:17:47;2.30;99.90
12015;DHT22;6066;48.138;16.402;2023-12-29T06:20:14;2.30;99.90
12015;DHT22;6066;48.138;16.402;2023-12-29T06:22:40;2.30;99.90
12015;DHT22;6066;48.138;16.402;2023-12-29T06:25:08;2.30;99.90
12015;DHT22;6066;48.138;16.402;2023-12-29T06:27:36;2.30;99.90
12015;DHT22;6066;48.138;16.402;2023-12-29T06:30:04;2.20;99.90
12015;DHT22;6066;48.138;16.402;2023-12-29T06:32:31;2.20;99.90
12015;DHT22;6066;48.138;16.402;2023-12-29T06:34:58;2.20;99.90
12015;DHT22;6066;48.138;16.402;2023-12-29T06:37:24;2.20;99.90
12015;DHT22;6066;48.138;16.402;2023-12-29T06:39:51;2.20;99.90
12015;DHT22;6066;48.138;16.402;2023-12-29T06:42:18;2.10;99.90
12015;DHT22;6066;48.138;16.402;2023-12-29T06:44:46;2.10;99.90
12015;DHT22;6066;48.138;16.402;2023-12-29T06:47:13;2.10;99.90
12015;DHT22;6066;48.138;16.402;2023-12-29T06:49:40;2.10;99.90
12015;DHT22;6066;48.138;16.402;2023-12-29T06:52:07;2.00;99.90
12015;DHT22;6066;48.138;16.402;2023-12-29T06:54:34;2.00;99.90
12015;DHT22;6066;48.138;16.402;2023-12-29T06:57:01;2.00;99.90
12015;DHT22;6066;48.138;16.402;2023-12-29T06:59:27;2.00;99.90
12015;DHT22;6066;48.138;16.402;2023-12-29T07:01:55;1.90;99.90
12015;DHT22;6066;48.138;16.402;2023-12-29T07:04:22;1.90;99.90
12015;DHT22;6066;48.138;16.402;2023-12-29T07:06:49;1.90;99.90
12015;DHT22;6066;48.138;16.402;2023-12-29T07:09:16;1.90;99.90
12015;DHT22;6066;48.138;16.402;2023-12-29T07:11:46;1.90;99.90
12015;DHT22;6066;48.138;16.402;2023-12-29T07:14:13;1.90;99.90
12015;DHT22;6066;48.138;16.402;2023-12-29T07:16:40;1.90;99.90
12015;DHT22;6066;48.138;16.402;2023-12-29T07:19:08;1.80;99.90
12015;DHT22;6066;48.138;16.402;2023-12-29T07:21:35;1.80;99.90
12015;DHT22;6066;48.138;16.402;2023-12-29T07:24:02;1.80;99.90
12015;DHT22;6066;48.138;16.402;2023-12-29T07:26:29;1.80;99.90
12015;DHT22;6066;48.138;16.402;2023-12-29T07:28:56;1.90;99.90
12015;DHT22;6066;48.138;16.402;2023-12-29T07:31:22;1.90;99.90
12015;DHT22;6066;48.138;16.402;2023-12-29T07:33:49;1.90;99.90
12015;DHT22;6066;48.138;16.402;2023-12-29T07:36:17;1.90;99.90
12015;DHT22;6066;48.138;16.402;2023-12-29T07:38:44;2.00;99.90
12015;DHT22;6066;48.138;16.402;2023-12-29T07:41:11;2.00;99.90
12015;DHT22;6066;48.138;16.402;2023-12-29T07:43:38;2.10;99.90
12015;DHT22;6066;48.138;16.402;2023-12-29T07:46:04;2.10;99.90
12015;DHT22;6066;48.138;16.402;2023-12-29T07:48:31;2.20;99.90
12015;DHT22;6066;48.138;16.402;2023-12-29T07:50:58;2.20;99.90
12015;DHT22;6066;48.138;16.402;2023-12-29T07:53:31;2.30;99.90
12015;DHT22;6066;48.138;16.402;2023-12-29T07:55:57;2.30;99.90
12015;DHT22;6066;48.138;16.402;2023-12-29T07:58:24;2.50;99.90
12015;DHT22;6066;48.138;16.402;2023-12-29T08:00:51;2.60;99.90
12015;DHT22;6066;48.138;16.402;2023-12-29T08:03:18;2.70;99.90
12015;DHT22;6066;48.138;16.402;2023-12-29T08:05:44;2.90;99.90
12015;DHT22;6066;48.138;16.402;2023-12-29T08:08:12;3.00;99.90
12015;DHT22;6066;48.138;16.402;2023-12-29T08:10:40;3.20;99.90
12015;DHT22;6066;48.138;16.402;2023-12-29T08:13:07;3.40;99.90
12015;DHT22;6066;48.138;16.402;2023-12-29T08:15:34;3.50;99.90
12015;DHT22;6066;48.138;16.402;2023-12-29T08:18:02;3.60;99.90
12015;DHT22;6066;48.138;16.402;2023-12-29T08:20:29;3.80;99.90
12015;DHT22;6066;48.138;16.402;2023-12-29T08:22:56;3.90;99.90
12015;DHT22;6066;48.138;16.402;2023-12-29T08:25:23;4.00;99.90
12015;DHT22;6066;48.138;16.402;2023-12-29T08:27:51;4.10;99.90
12015;DHT22;6066;48.138;16.402;2023-12-29T08:30:18;4.20;99.90
12015;DHT22;6066;48.138;16.402;2023-12-29T08:32:45;4.20;99.90
12015;DHT22;6066;48.138;16.402;2023-12-29T08:35:12;4.30;99.90
12015;DHT22;6066;48.138;16.402;2023-12-29T08:37:38;4.40;99.90
12015;DHT22;6066;48.138;16.402;2023-12-29T08:40:06;4.50;99.90
12015;DHT22;6066;48.138;16.402;2023-12-29T08:42:33;4.60;99.90
12015;DHT22;6066;48.138;16.402;2023-12-29T08:45:01;4.70;99.90
12015;DHT22;6066;48.138;16.402;2023-12-29T08:47:30;4.90;99.90
12015;DHT22;6066;48.138;16.402;2023-12-29T08:49:57;5.00;99.90
12015;DHT22;6066;48.138;16.402;2023-12-29T08:52:24;5.10;99.90
12015;DHT22;6066;48.138;16.402;2023-12-29T08:54:50;5.20;99.90
12015;DHT22;6066;48.138;16.402;2023-12-29T08:57:17;5.20;99.90
12015;DHT22;6066;48.138;16.402;2023-12-29T08:59:44;5.30;99.90
12015;DHT22;6066;48.138;16.402;2023-12-29T09:02:12;5.30;99.90
12015;DHT22;6066;48.138;16.402;2023-12-29T09:04:39;5.30;99.90
12015;DHT22;6066;48.138;16.402;2023-12-29T09:07:07;5.40;99.90
12015;DHT22;6066;48.138;16.402;2023-12-29T09:09:34;5.40;99.90
12015;DHT22;6066;48.138;16.402;2023-12-29T09:12:00;5.50;99.90
12015;DHT22;6066;48.138;16.402;2023-12-29T09:14:27;5.60;99.90
12015;DHT22;6066;48.138;16.402;2023-12-29T09:16:55;5.60;99.90
12015;DHT22;6066;48.138;16.402;2023-12-29T09:19:23;5.70;99.90
12015;DHT22;6066;48.138;16.402;2023-12-29T09:21:50;5.80;99.90
12015;DHT22;6066;48.138;16.402;2023-12-29T09:24:17;5.80;99.90
12015;DHT22;6066;48.138;16.402;2023-12-29T09:26:44;5.90;99.90
12015;DHT22;6066;48.138;16.402;2023-12-29T09:29:11;6.00;99.90
12015;DHT22;6066;48.138;16.402;2023-12-29T09:31:37;6.00;99.90
12015;DHT22;6066;48.138;16.402;2023-12-29T09:34:04;6.10;99.90
12015;DHT22;6066;48.138;16.402;2023-12-29T09:36:32;6.20;99.90
12015;DHT22;6066;48.138;16.402;2023-12-29T09:38:59;6.20;99.90
12015;DHT22;6066;48.138;16.402;2023-12-29T09:41:26;6.30;99.90
12015;DHT22;6066;48.138;16.402;2023-12-29T09:43:54;6.30;99.90
12015;DHT22;6066;48.138;16.402;2023-12-29T09:46:22;6.40;99.90
12015;DHT22;6066;48.138;16.402;2023-12-29T09:48:50;6.40;99.90
12015;DHT22;6066;48.138;16.402;2023-12-29T09:51:18;6.50;99.90
12015;DHT22;6066;48.138;16.402;2023-12-29T09:53:50;6.60;99.90
12015;DHT22;6066;48.138;16.402;2023-12-29T09:56:18;6.60;99.90
12015;DHT22;6066;48.138;16.402;2023-12-29T09:58:46;6.70;99.90
12015;DHT22;6066;48.138;16.402;2023-12-29T10:01:13;6.90;99.90
12015;DHT22;6066;48.138;16.402;2023-12-29T10:03:41;7.00;99.90
12015;DHT22;6066;48.138;16.402;2023-12-29T10:06:08;7.10;99.90
12015;DHT22;6066;48.138;16.402;2023-12-29T10:08:36;7.20;99.90
12015;DHT22;6066;48.138;16.402;2023-12-29T10:11:05;7.30;99.90
12015;DHT22;6066;48.138;16.402;2023-12-29T10:13:32;7.40;99.90
12015;DHT22;6066;48.138;16.402;2023-12-29T10:16:04;7.50;99.90
12015;DHT22;6066;48.138;16.402;2023-12-29T10:18:36;7.60;99.90
12015;DHT22;6066;48.138;16.402;2023-12-29T10:21:06;7.70;99.90
12015;DHT22;6066;48.138;16.402;2023-12-29T10:23:36;7.70;99.90
12015;DHT22;6066;48.138;16.402;2023-12-29T10:26:05;7.80;99.90
12015;DHT22;6066;48.138;16.402;2023-12-29T10:28:33;7.80;99.90
12015;DHT22;6066;48.138;16.402;2023-12-29T10:31:01;7.80;99.90
12015;DHT22;6066;48.138;16.402;2023-12-29T10:33:28;7.80;99.90
12015;DHT22;6066;48.138;16.402;2023-12-29T10:35:58;7.70;99.90
12015;DHT22;6066;48.138;16.402;2023-12-29T10:38:28;7.60;99.90
12015;DHT22;6066;48.138;16.402;2023-12-29T10:40:55;7.60;99.90
12015;DHT22;6066;48.138;16.402;2023-12-29T10:43:24;7.70;99.90
12015;DHT22;6066;48.138;16.402;2023-12-29T10:45:57;7.80;99.90
12015;DHT22;6066;48.138;16.402;2023-12-29T10:48:32;7.90;99.90
12015;DHT22;6066;48.138;16.402;2023-12-29T10:50:58;8.00;99.90
12015;DHT22;6066;48.138;16.402;2023-12-29T10:53:27;8.10;99.90
12015;DHT22;6066;48.138;16.402;2023-12-29T10:55:54;8.10;99.90
12015;DHT22;6066;48.138;16.402;2023-12-29T10:58:21;8.10;99.90
12015;DHT22;6066;48.138;16.402;2023-12-29T11:00:52;8.10;99.90
12015;DHT22;6066;48.138;16.402;2023-12-29T11:03:18;8.00;99.90
12015;DHT22;6066;48.138;16.402;2023-12-29T11:05:45;8.20;99.90
12015;DHT22;6066;48.138;16.402;2023-12-29T11:08:16;8.20;99.90
12015;DHT22;6066;48.138;16.402;2023-12-29T11:10:43;8.30;99.90
12015;DHT22;6066;48.138;16.402;2023-12-29T11:13:10;8.40;99.90
12015;DHT22;6066;48.138;16.402;2023-12-29T11:15:40;8.40;99.90
12015;DHT22;6066;48.138;16.402;2023-12-29T11:18:09;8.50;99.90
12015;DHT22;6066;48.138;16.402;2023-12-29T11:20:38;8.70;99.90
12015;DHT22;6066;48.138;16.402;2023-12-29T11:23:05;8.90;99.90
12015;DHT22;6066;48.138;16.402;2023-12-29T11:25:33;9.00;99.90
12015;DHT22;6066;48.138;16.402;2023-12-29T11:28:00;9.10;99.90
12015;DHT22;6066;48.138;16.402;2023-12-29T11:30:27;9.20;99.90
12015;DHT22;6066;48.138;16.402;2023-12-29T11:32:55;9.30;99.90
12015;DHT22;6066;48.138;16.402;2023-12-29T11:35:25;9.50;99.90
12015;DHT22;6066;48.138;16.402;2023-12-29T11:38:08;9.70;99.90
12015;DHT22;6066;48.138;16.402;2023-12-29T11:40:41;9.90;99.90
12015;DHT22;6066;48.138;16.402;2023-12-29T11:43:09;10.20;99.90
12015;DHT22;6066;48.138;16.402;2023-12-29T11:45:39;10.50;99.90
12015;DHT22;6066;48.138;16.402;2023-12-29T11:48:06;10.60;99.90
12015;DHT22;6066;48.138;16.402;2023-12-29T11:50:35;10.80;99.90
12015;DHT22;6066;48.138;16.402;2023-12-29T11:53:03;10.90;99.90
12015;DHT22;6066;48.138;16.402;2023-12-29T11:55:35;10.90;99.90
12015;DHT22;6066;48.138;16.402;2023-12-29T11:58:23;10.90;99.90
12015;DHT22;6066;48.138;16.402;2023-12-29T12:00:50;10.90;99.90
12015;DHT22;6066;48.138;16.402;2023-12-29T12:03:18;10.90;99.90
12015;DHT22;6066;48.138;16.402;2023-12-29T12:05:48;10.90;99.90
12015;DHT22;6066;48.138;16.402;2023-12-29T12:08:27;10.90;99.90
12015;DHT22;6066;48.138;16.402;2023-12-29T12:10:55;10.90;99.90
12015;DHT22;6066;48.138;16.402;2023-12-29T12:16:07;11.00;99.90
12015;DHT22;6066;48.138;16.402;2023-12-29T12:18:34;11.00;99.90
12015;DHT22;6066;48.138;16.402;2023-12-29T12:21:02;11.00;99.90
12015;DHT22;6066;48.138;16.402;2023-12-29T12:23:30;11.10;99.90
12015;DHT22;6066;48.138;16.402;2023-12-29T12:26:00;11.00;99.90
12015;DHT22;6066;48.138;16.402;2023-12-29T12:28:29;11.00;99.90
12015;DHT22;6066;48.138;16.402;2023-12-29T12:31:04;11.00;99.90
12015;DHT22;6066;48.138;16.402;2023-12-29T12:33:31;11.00;99.90
12015;DHT22;6066;48.138;16.402;2023-12-29T12:35:59;11.10;99.90
12015;DHT22;6066;48.138;16.402;2023-12-29T12:38:27;11.10;99.90
12015;DHT22;6066;48.138;16.402;2023-12-29T12:40:55;11.20;99.90
12015;DHT22;6066;48.138;16.402;2023-12-29T12:43:23;11.20;99.90
12015;DHT22;6066;48.138;16.402;2023-12-29T12:45:53;11.10;99.90
12015;DHT22;6066;48.138;16.402;2023-12-29T12:48:20;11.10;99.90
12015;DHT22;6066;48.138;16.402;2023-12-29T12:50:48;11.10;99.90
12015;DHT22;6066;48.138;16.402;2023-12-29T12:53:15;11.10;99.90
12015;DHT22;6066;48.138;16.402;2023-12-29T12:55:48;11.00;99.90
12015;DHT22;6066;48.138;16.402;2023-12-29T12:58:16;11.00;99.90
12015;DHT22;6066;48.138;16.402;2023-12-29T13:00:42;10.90;99.90
12015;DHT22;6066;48.138;16.402;2023-12-29T13:03:09;10.80;99.90
12015;DHT22;6066;48.138;16.402;2023-12-29T13:05:36;10.80;99.90
12015;DHT22;6066;48.138;16.402;2023-12-29T13:08:04;10.70;99.90
12015;DHT22;6066;48.138;16.402;2023-12-29T13:10:32;10.70;99.90
12015;DHT22;6066;48.138;16.402;2023-12-29T13:13:00;10.60;99.90
12015;DHT22;6066;48.138;16.402;2023-12-29T13:15:27;10.60;99.90
12015;DHT22;6066;48.138;16.402;2023-12-29T13:17:55;10.50;99.90
12015;DHT22;6066;48.138;16.402;2023-12-29T13:20:22;10.50;99.90
12015;DHT22;6066;48.138;16.402;2023-12-29T13:22:50;10.50;99.90
12015;DHT22;6066;48.138;16.402;2023-12-29T13:25:18;10.50;99.90
12015;DHT22;6066;48.138;16.402;2023-12-29T13:27:47;10.40;99.90
12015;DHT22;6066;48.138;16.402;2023-12-29T13:30:15;10.30;99.90
12015;DHT22;6066;48.138;16.402;2023-12-29T13:32:43;10.20;99.90
12015;DHT22;6066;48.138;16.402;2023-12-29T13:35:11;10.10;99.90
12015;DHT22;6066;48.138;16.402;2023-12-29T13:37:43;10.00;99.90
12015;DHT22;6066;48.138;16.402;2023-12-29T13:40:12;9.90;99.90
12015;DHT22;6066;48.138;16.402;2023-12-29T13:42:41;9.90;99.90
12015;DHT22;6066;48.138;16.402;2023-12-29T13:45:10;9.80;99.90
12015;DHT22;6066;48.138;16.402;2023-12-29T13:47:38;9.70;99.90
12015;DHT22;6066;48.138;16.402;2023-12-29T13:50:08;9.60;99.90
12015;DHT22;6066;48.138;16.402;2023-12-29T13:52:35;9.60;99.90
12015;DHT22;6066;48.138;16.402;2023-12-29T13:55:02;9.40;99.90
12015;DHT22;6066;48.138;16.402;2023-12-29T13:57:30;9.30;99.90
12015;DHT22;6066;48.138;16.402;2023-12-29T13:59:57;9.20;99.90
12015;DHT22;6066;48.138;16.402;2023-12-29T14:02:27;9.10;99.90
12015;DHT22;6066;48.138;16.402;2023-12-29T14:05:12;9.10;99.90
12015;DHT22;6066;48.138;16.402;2023-12-29T14:07:43;9.00;99.90
12015;DHT22;6066;48.138;16.402;2023-12-29T14:10:11;8.90;99.90
12015;DHT22;6066;48.138;16.402;2023-12-29T14:12:38;8.90;99.90
12015;DHT22;6066;48.138;16.402;2023-12-29T14:15:05;8.80;99.90
12015;DHT22;6066;48.138;16.402;2023-12-29T14:17:32;8.80;99.90
12015;DHT22;6066;48.138;16.402;2023-12-29T14:19:59;8.70;99.90
12015;DHT22;6066;48.138;16.402;2023-12-29T14:22:32;8.60;99.90
12015;DHT22;6066;48.138;16.402;2023-12-29T14:25:00;8.50;99.90
12015;DHT22;6066;48.138;16.402;2023-12-29T14:27:28;8.40;99.90
12015;DHT22;6066;48.138;16.402;2023-12-29T14:29:55;8.30;99.90
12015;DHT22;6066;48.138;16.402;2023-12-29T14:32:22;8.10;99.90
12015;DHT22;6066;48.138;16.402;2023-12-29T14:34:50;8.00;99.90
12015;DHT22;6066;48.138;16.402;2023-12-29T14:37:20;7.90;99.90
12015;DHT22;6066;48.138;16.402;2023-12-29T14:39:49;7.80;99.90
12015;DHT22;6066;48.138;16.402;2023-12-29T14:42:16;7.70;99.90
12015;DHT22;6066;48.138;16.402;2023-12-29T14:44:45;7.60;99.90
12015;DHT22;6066;48.138;16.402;2023-12-29T14:47:11;7.50;99.90
12015;DHT22;6066;48.138;16.402;2023-12-29T14:49:39;7.40;99.90
12015;DHT22;6066;48.138;16.402;2023-12-29T14:52:05;7.30;99.90
12015;DHT22;6066;48.138;16.402;2023-12-29T14:54:32;7.20;99.90
12015;DHT22;6066;48.138;16.402;2023-12-29T14:57:00;7.20;99.90
12015;DHT22;6066;48.138;16.402;2023-12-29T14:59:27;7.10;99.90
12015;DHT22;6066;48.138;16.402;2023-12-29T15:01:56;7.00;99.90
12015;DHT22;6066;48.138;16.402;2023-12-29T15:04:23;6.90;99.90
12015;DHT22;6066;48.138;16.402;2023-12-29T15:06:49;6.90;99.90
12015;DHT22;6066;48.138;16.402;2023-12-29T15:09:16;6.90;99.90
12015;DHT22;6066;48.138;16.402;2023-12-29T15:11:43;6.90;99.90
12015;DHT22;6066;48.138;16.402;2023-12-29T15:14:11;6.90;99.90
12015;DHT22;6066;48.138;16.402;2023-12-29T15:16:38;6.90;99.90
12015;DHT22;6066;48.138;16.402;2023-12-29T15:19:05;6.80;99.90
12015;DHT22;6066;48.138;16.402;2023-12-29T15:21:34;6.80;99.90
12015;DHT22;6066;48.138;16.402;2023-12-29T15:24:01;6.80;99.90
12015;DHT22;6066;48.138;16.402;2023-12-29T15:26:28;6.80;99.90
12015;DHT22;6066;48.138;16.402;2023-12-29T15:28:54;6.70;99.90
12015;DHT22;6066;48.138;16.402;2023-12-29T15:31:23;6.70;99.90
12015;DHT22;6066;48.138;16.402;2023-12-29T15:33:50;6.60;99.90
12015;DHT22;6066;48.138;16.402;2023-12-29T15:36:18;6.60;99.90
12015;DHT22;6066;48.138;16.402;2023-12-29T15:38:48;6.60;99.90
12015;DHT22;6066;48.138;16.402;2023-12-29T15:41:15;6.50;99.90
12015;DHT22;6066;48.138;16.402;2023-12-29T15:43:41;6.50;99.90
12015;DHT22;6066;48.138;16.402;2023-12-29T15:46:12;6.40;99.90
12015;DHT22;6066;48.138;16.402;2023-12-29T15:48:40;6.40;99.90
12015;DHT22;6066;48.138;16.402;2023-12-29T15:51:07;6.40;99.90
12015;DHT22;6066;48.138;16.402;2023-12-29T15:53:34;6.30;99.90